Time;durP1;ratioP1;P1;durP2;ratioP2;P2;SDS_P1;SDS_P2;PMS_P1;PMS_P2;Temp;Humidity;BMP_temperature;BMP_pressure;BME280_temperature;BME280_humidity;BME280_pressure;Samples;Min_cycle;Max_cycle;Signal;HPM_P1;HPM_P2
2022/10/15 00:01:12;;;;;;;1.20;1.20;;;19.40;59.00;;;;;;5010329;28;20434;-79
2022/10/15 00:03:40;;;;;;;1.20;1.10;;;19.40;59.30;;;;;;4997744;28;20405;-77
2022/10/15 00:06:08;;;;;;;1.23;1.20;;;19.40;59.80;;;;;;4994210;28;20444;-79
2022/10/15 00:08:34;;;;;;;1.30;1.20;;;19.50;59.30;;;;;;4998129;28;20453;-77
2022/10/15 00:11:18;;;;;;;1.20;1.10;;;19.40;59.60;;;;;;4998857;28;20469;-79
2022/10/15 00:13:44;;;;;;;1.20;1.20;;;19.30;59.70;;;;;;4990359;28;20424;-79
2022/10/15 00:16:18;;;;;;;1.30;1.30;;;19.50;59.50;;;;;;4996277;28;20504;-79
2022/10/15 00:18:44;;;;;;;1.20;1.00;;;19.50;58.70;;;;;;4995473;28;20459;-80
2022/10/15 00:21:13;;;;;;;1.20;1.13;;;19.50;59.20;;;;;;4997095;28;20988;-79
2022/10/15 00:23:40;;;;;;;1.20;1.10;;;19.40;59.80;;;;;;4991767;28;20866;-80
2022/10/15 00:26:17;;;;;;;1.77;1.50;;;19.80;59.00;;;;;;4991624;28;20461;-80
2022/10/15 00:28:44;;;;;;;1.20;1.10;;;19.60;58.50;;;;;;4993943;28;20453;-79
2022/10/15 00:31:13;;;;;;;1.20;1.10;;;19.50;59.20;;;;;;4994374;28;20584;-80
2022/10/15 00:33:39;;;;;;;1.20;1.00;;;19.50;59.40;;;;;;4993961;28;20433;-80
2022/10/15 00:36:12;;;;;;;1.20;1.10;;;19.40;60.00;;;;;;4991923;28;20492;-78
2022/10/15 00:38:38;;;;;;;1.20;1.07;;;19.40;60.50;;;;;;4996356;28;20458;-78
2022/10/15 00:41:06;;;;;;;1.20;1.20;;;19.50;59.50;;;;;;4996277;28;20444;-79
2022/10/15 00:44:01;;;;;;;1.20;1.20;;;19.50;59.70;;;;;;4993855;28;20443;-78
2022/10/15 00:46:40;;;;;;;1.20;1.10;;;19.30;60.60;;;;;;4980430;28;20448;-78
2022/10/15 00:49:23;;;;;;;1.20;1.10;;;19.40;60.50;;;;;;4993054;28;20475;-78
2022/10/15 00:51:55;;;;;;;1.20;1.13;;;19.30;61.20;;;;;;4993627;28;20465;-80
2022/10/15 00:54:22;;;;;;;1.20;1.20;;;19.50;60.20;;;;;;4993675;28;20437;-80
2022/10/15 00:56:49;;;;;;;1.20;1.13;;;19.40;61.00;;;;;;4993184;28;20431;-80
2022/10/15 00:59:17;;;;;;;1.30;1.20;;;19.00;62.90;;;;;;4992598;28;20475;-79
2022/10/15 01:01:43;;;;;;;1.20;1.13;;;19.20;63.60;;;;;;4993466;28;20441;-80
2022/10/15 01:04:10;;;;;;;1.20;1.10;;;19.50;60.90;;;;;;4993623;28;20437;-79
2022/10/15 01:06:36;;;;;;;1.20;1.13;;;19.70;61.70;;;;;;4993863;28;20527;-80
2022/10/15 01:09:01;;;;;;;1.20;1.10;;;19.70;61.50;;;;;;4993372;28;20468;-79
2022/10/15 01:11:41;;;;;;;1.20;1.13;;;19.70;61.00;;;;;;4993267;28;20207;-79
2022/10/15 01:14:28;;;;;;;1.20;1.20;;;19.80;60.10;;;;;;4993576;28;20519;-80
2022/10/15 01:17:17;;;;;;;1.30;1.30;;;19.80;60.90;;;;;;4994203;28;20491;-80
2022/10/15 01:20:12;;;;;;;1.23;1.20;;;19.70;61.10;;;;;;4995240;28;20491;-80
2022/10/15 01:23:15;;;;;;;1.20;1.17;;;19.70;61.20;;;;;;4992963;28;20425;-78
2022/10/15 01:25:59;;;;;;;1.20;1.20;;;19.80;60.50;;;;;;4994518;28;20443;-79
2022/10/15 01:28:33;;;;;;;1.20;1.10;;;19.80;59.90;;;;;;4996576;28;20467;-79
2022/10/15 01:31:27;;;;;;;1.30;1.30;;;19.80;61.30;;;;;;4996551;28;20477;-80
2022/10/15 01:34:18;;;;;;;1.20;1.20;;;19.70;61.00;;;;;;4992149;28;21010;-80
2022/10/15 01:37:13;;;;;;;1.20;1.10;;;19.70;61.50;;;;;;4996022;28;20434;-80
2022/10/15 01:39:49;;;;;;;1.20;1.10;;;19.70;60.90;;;;;;4996282;28;20520;-80
2022/10/15 01:42:33;;;;;;;1.20;1.10;;;19.70;61.00;;;;;;4996538;28;20438;-78
2022/10/15 01:45:07;;;;;;;1.20;1.20;;;19.90;59.30;;;;;;4992406;28;20480;-78
2022/10/15 01:47:47;;;;;;;1.20;1.10;;;19.30;62.50;;;;;;4988950;28;20534;-78
2022/10/15 01:50:15;;;;;;;1.20;1.10;;;19.50;62.50;;;;;;5009052;28;20464;-78
2022/10/15 01:52:43;;;;;;;1.20;1.10;;;19.60;62.40;;;;;;4993676;28;20438;-79
2022/10/15 01:55:12;;;;;;;1.20;1.20;;;19.60;60.80;;;;;;4995240;28;20437;-78
2022/10/15 01:57:41;;;;;;;1.20;1.10;;;19.80;60.20;;;;;;5007934;28;20541;-76
2022/10/15 02:00:07;;;;;;;1.20;1.10;;;19.70;60.90;;;;;;4995895;28;20500;-80
2022/10/15 02:02:33;;;;;;;1.20;1.10;;;19.80;60.50;;;;;;4994961;28;20441;-79
2022/10/15 02:04:59;;;;;;;1.20;1.10;;;19.80;61.40;;;;;;4996849;28;20942;-79
2022/10/15 02:07:41;;;;;;;1.20;1.20;;;19.30;63.20;;;;;;4996165;28;20282;-79
2022/10/15 02:10:28;;;;;;;1.20;1.20;;;19.00;67.00;;;;;;4995117;28;20183;-78
2022/10/15 02:13:15;;;;;;;1.20;1.20;;;18.80;67.40;;;;;;4994972;28;20504;-79
2022/10/15 02:15:43;;;;;;;1.20;1.10;;;18.90;68.20;;;;;;4996975;28;20924;-80
2022/10/15 02:18:35;;;;;;;1.20;1.17;;;18.90;68.70;;;;;;4995575;28;20467;-79
2022/10/15 02:21:09;;;;;;;1.20;1.10;;;19.00;68.00;;;;;;4994940;28;20441;-77
2022/10/15 02:23:50;;;;;;;1.20;1.10;;;19.00;68.90;;;;;;4995490;28;20436;-79
2022/10/15 02:26:17;;;;;;;1.20;1.10;;;19.20;67.50;;;;;;4993638;28;20460;-80
2022/10/15 02:28:49;;;;;;;1.20;1.20;;;19.10;68.00;;;;;;4996101;28;20464;-79
2022/10/15 02:31:17;;;;;;;1.20;1.00;;;19.20;66.70;;;;;;4995808;28;21043;-79
2022/10/15 02:33:45;;;;;;;1.70;1.47;;;19.50;65.10;;;;;;4998514;28;20440;-78
2022/10/15 02:36:11;;;;;;;1.20;1.10;;;19.60;63.40;;;;;;4999662;28;20435;-79
2022/10/15 02:38:42;;;;;;;1.20;1.10;;;19.60;63.20;;;;;;4997473;28;20479;-78
2022/10/15 02:41:08;;;;;;;1.20;1.10;;;19.80;62.30;;;;;;4998007;28;20909;-79
2022/10/15 02:43:36;;;;;;;1.20;1.13;;;19.80;61.50;;;;;;4999002;28;20450;-79
2022/10/15 02:46:01;;;;;;;1.20;1.03;;;19.70;61.50;;;;;;4998468;28;20478;-79
2022/10/15 02:48:27;;;;;;;1.20;1.20;;;19.30;64.20;;;;;;4997546;28;20458;-79
2022/10/15 02:50:52;;;;;;;1.20;1.20;;;19.50;63.90;;;;;;4997734;28;20209;-78
2022/10/15 02:53:18;;;;;;;1.20;1.20;;;19.60;62.60;;;;;;4997873;28;20187;-79
2022/10/15 02:55:45;;;;;;;1.20;1.00;;;20.00;61.60;;;;;;4997150;28;20234;-79
2022/10/15 02:58:11;;;;;;;1.20;1.20;;;19.60;63.20;;;;;;4996892;28;20220;-78
2022/10/15 03:00:37;;;;;;;1.20;1.17;;;19.60;61.50;;;;;;4998414;28;20441;-79
2022/10/15 03:03:03;;;;;;;1.20;1.10;;;19.60;61.80;;;;;;4997172;28;20445;-78
2022/10/15 03:05:28;;;;;;;1.40;1.20;;;19.30;63.70;;;;;;4997699;28;20190;-79
2022/10/15 03:07:54;;;;;;;1.20;1.20;;;19.50;64.60;;;;;;4998143;28;20217;-80
2022/10/15 03:10:20;;;;;;;1.20;1.17;;;19.50;63.30;;;;;;4998733;28;20200;-79
2022/10/15 03:12:45;;;;;;;1.20;1.10;;;19.80;62.80;;;;;;4997655;28;20192;-78
2022/10/15 03:15:11;;;;;;;1.20;1.20;;;19.10;66.40;;;;;;4997731;28;20199;-78
2022/10/15 03:17:36;;;;;;;1.20;1.20;;;19.40;64.60;;;;;;4996985;28;20287;-79
2022/10/15 03:20:03;;;;;;;1.30;1.20;;;19.30;64.10;;;;;;5008985;22;20372;-70
2022/10/15 03:22:29;;;;;;;1.20;1.17;;;19.50;63.80;;;;;;4991025;28;20242;-73
2022/10/15 03:24:54;;;;;;;1.30;1.20;;;19.50;62.20;;;;;;4990111;28;21109;-70
2022/10/15 03:27:20;;;;;;;1.20;1.20;;;18.60;67.40;;;;;;4991163;28;20414;-70
2022/10/15 03:29:45;;;;;;;1.40;1.20;;;18.60;68.10;;;;;;4991789;28;20216;-70
2022/10/15 03:32:11;;;;;;;1.20;1.20;;;18.50;71.70;;;;;;4990675;28;20700;-69
2022/10/15 03:34:36;;;;;;;1.27;1.20;;;18.80;66.60;;;;;;4991760;28;20330;-70
2022/10/15 03:37:02;;;;;;;1.20;1.10;;;18.50;69.80;;;;;;4995205;28;20195;-70
2022/10/15 03:39:28;;;;;;;1.20;1.20;;;18.80;69.30;;;;;;4991041;28;20198;-71
2022/10/15 03:41:53;;;;;;;1.20;1.20;;;18.80;67.10;;;;;;4990831;28;20201;-70
2022/10/15 03:44:19;;;;;;;1.20;1.10;;;18.90;65.30;;;;;;4991494;28;20559;-70
2022/10/15 03:46:44;;;;;;;1.20;1.20;;;19.10;66.30;;;;;;4997803;28;20241;-70
2022/10/15 03:49:10;;;;;;;1.20;1.20;;;18.60;68.30;;;;;;4990971;28;20187;-70
2022/10/15 03:51:36;;;;;;;1.50;1.40;;;19.00;65.40;;;;;;4990892;28;20195;-72
2022/10/15 03:54:02;;;;;;;1.20;1.13;;;19.20;63.30;;;;;;4990476;28;20471;-72
2022/10/15 03:56:28;;;;;;;1.20;1.20;;;19.20;62.20;;;;;;4989017;28;20213;-72
2022/10/15 03:58:54;;;;;;;1.30;1.20;;;19.10;63.40;;;;;;4990347;28;20475;-69
2022/10/15 04:01:19;;;;;;;1.30;1.20;;;19.00;64.50;;;;;;4989832;28;21215;-71
2022/10/15 04:03:45;;;;;;;1.23;1.20;;;19.10;63.30;;;;;;4990524;28;20278;-69
2022/10/15 04:06:11;;;;;;;1.30;1.20;;;19.40;60.70;;;;;;4991475;28;20531;-70
2022/10/15 04:08:36;;;;;;;1.20;1.17;;;19.50;59.90;;;;;;4992048;28;20187;-72
2022/10/15 04:11:02;;;;;;;1.30;1.27;;;19.30;59.90;;;;;;4991562;28;20621;-69
2022/10/15 04:13:28;;;;;;;1.30;1.20;;;19.10;62.60;;;;;;4991717;28;20690;-69
2022/10/15 04:15:54;;;;;;;1.20;1.10;;;19.20;64.40;;;;;;4991274;28;20207;-71
2022/10/15 04:18:20;;;;;;;1.20;1.20;;;19.00;63.60;;;;;;4992107;28;20433;-70
2022/10/15 04:20:47;;;;;;;1.30;1.20;;;19.30;60.20;;;;;;4989237;28;20225;-70
2022/10/15 04:23:13;;;;;;;1.30;1.20;;;19.30;60.20;;;;;;4990520;28;20447;-70
2022/10/15 04:25:39;;;;;;;1.27;1.20;;;19.50;60.70;;;;;;4990535;28;20462;-71
2022/10/15 04:28:04;;;;;;;1.20;1.20;;;19.20;60.50;;;;;;4993189;28;20962;-69
2022/10/15 04:30:30;;;;;;;1.20;1.10;;;18.90;62.80;;;;;;4989655;28;20206;-69
2022/10/15 04:32:55;;;;;;;1.30;1.20;;;19.10;60.40;;;;;;4989900;28;20184;-70
2022/10/15 04:35:21;;;;;;;1.30;1.27;;;19.20;61.20;;;;;;4990403;28;21010;-71
2022/10/15 04:37:47;;;;;;;1.20;1.00;;;19.20;59.40;;;;;;4990423;28;20551;-69
2022/10/15 04:40:13;;;;;;;1.23;1.20;;;19.20;60.10;;;;;;4993909;28;20277;-69
2022/10/15 04:42:39;;;;;;;1.20;1.20;;;19.40;59.90;;;;;;4988158;28;20183;-70
2022/10/15 04:45:05;;;;;;;1.20;1.10;;;19.10;59.10;;;;;;4991700;28;20419;-69
2022/10/15 04:47:31;;;;;;;1.20;1.10;;;19.30;60.50;;;;;;4988655;28;20214;-70
2022/10/15 04:49:57;;;;;;;1.27;1.20;;;19.30;58.50;;;;;;4999312;28;20506;-70
2022/10/15 04:52:22;;;;;;;1.20;1.10;;;19.40;60.50;;;;;;4991456;28;20214;-70
2022/10/15 04:54:48;;;;;;;1.30;1.20;;;19.60;60.10;;;;;;4994851;28;20183;-69
2022/10/15 04:57:14;;;;;;;1.20;1.13;;;19.50;57.40;;;;;;4993486;28;20435;-70
2022/10/15 04:59:40;;;;;;;1.30;1.20;;;19.40;56.70;;;;;;4995028;28;20195;-71
2022/10/15 05:02:06;;;;;;;1.20;1.20;;;19.30;59.40;;;;;;4995497;28;20180;-70
2022/10/15 05:04:32;;;;;;;1.30;1.20;;;19.50;57.90;;;;;;4992292;28;20427;-70
2022/10/15 05:06:57;;;;;;;1.20;1.10;;;19.70;55.90;;;;;;4994254;28;21002;-72
2022/10/15 05:09:23;;;;;;;1.27;1.10;;;19.60;55.20;;;;;;4994331;28;20181;-70
2022/10/15 05:11:49;;;;;;;1.30;1.20;;;19.80;55.20;;;;;;4993377;28;20748;-69
2022/10/15 05:14:14;;;;;;;1.20;1.10;;;19.70;56.10;;;;;;4998364;28;20182;-69
2022/10/15 05:16:40;;;;;;;1.20;1.20;;;19.00;58.70;;;;;;4994498;28;20175;-72
2022/10/15 05:19:07;;;;;;;1.20;1.10;;;19.30;57.50;;;;;;4993838;28;20174;-69
2022/10/15 05:21:34;;;;;;;1.30;1.17;;;18.90;59.40;;;;;;4991656;28;20468;-70
2022/10/15 05:24:00;;;;;;;1.30;1.10;;;19.00;59.20;;;;;;4991631;28;21031;-69
2022/10/15 05:26:28;;;;;;;1.23;1.10;;;19.10;57.00;;;;;;4993354;28;20509;-71
2022/10/15 05:28:56;;;;;;;1.20;1.10;;;19.20;57.10;;;;;;4993406;28;20947;-69
2022/10/15 05:31:24;;;;;;;1.20;1.10;;;19.50;56.70;;;;;;4992618;28;20454;-69
2022/10/15 05:33:51;;;;;;;1.20;1.10;;;19.30;56.60;;;;;;4995829;28;20818;-69
2022/10/15 05:36:23;;;;;;;1.20;1.10;;;19.30;57.60;;;;;;4994190;28;20437;-69
2022/10/15 05:38:50;;;;;;;1.30;1.30;;;19.20;57.10;;;;;;4993713;28;20475;-72
2022/10/15 05:41:16;;;;;;;1.27;1.20;;;19.20;57.60;;;;;;4993688;28;20546;-69
2022/10/15 05:43:42;;;;;;;1.30;1.17;;;19.10;57.30;;;;;;4992313;28;20565;-71
2022/10/15 05:46:08;;;;;;;1.30;1.20;;;18.90;59.50;;;;;;4994088;28;20181;-69
2022/10/15 05:48:33;;;;;;;1.30;1.27;;;19.10;59.20;;;;;;4993840;28;20655;-70
2022/10/15 05:51:11;;;;;;;1.30;1.20;;;19.30;57.00;;;;;;4993406;28;20208;-70
2022/10/15 05:53:37;;;;;;;1.47;1.27;;;19.10;57.00;;;;;;4992726;28;20174;-70
2022/10/15 05:56:04;;;;;;;1.30;1.30;;;19.00;56.90;;;;;;4992763;28;20520;-70
2022/10/15 05:58:31;;;;;;;1.20;1.00;;;18.60;60.00;;;;;;4993855;28;20573;-71
2022/10/15 06:00:58;;;;;;;1.47;1.33;;;18.70;59.50;;;;;;4993649;28;20553;-70
2022/10/15 06:03:25;;;;;;;1.30;1.10;;;19.10;58.80;;;;;;4997064;28;20438;-70
2022/10/15 06:05:51;;;;;;;1.30;1.20;;;19.40;55.30;;;;;;4995498;28;20436;-69
2022/10/15 06:08:18;;;;;;;1.20;1.10;;;19.50;54.80;;;;;;4992515;28;21000;-70
2022/10/15 06:10:43;;;;;;;1.67;1.33;;;19.30;56.10;;;;;;4994078;28;20461;-75
2022/10/15 06:13:09;;;;;;;1.23;1.10;;;18.90;58.90;;;;;;4993369;28;20429;-72
2022/10/15 06:15:39;;;;;;;1.30;1.20;;;18.80;59.00;;;;;;4992944;28;20227;-75
2022/10/15 06:18:05;;;;;;;1.20;1.10;;;18.70;60.70;;;;;;4997604;28;20405;-84
2022/10/15 06:20:31;;;;;;;1.30;1.20;;;19.00;59.70;;;;;;4997573;28;20477;-84
2022/10/15 06:22:58;;;;;;;1.30;1.20;;;19.00;57.90;;;;;;5013118;28;20441;-83
2022/10/15 06:25:24;;;;;;;1.27;1.20;;;19.20;57.60;;;;;;5010206;28;20307;-83
2022/10/15 06:27:50;;;;;;;1.20;1.00;;;19.30;56.30;;;;;;4997854;28;20938;-84
2022/10/15 06:30:15;;;;;;;1.27;1.20;;;19.20;56.50;;;;;;4997044;28;20471;-84
2022/10/15 06:32:52;;;;;;;1.20;1.10;;;19.00;60.10;;;;;;4993789;28;20170;-84
2022/10/15 06:35:19;;;;;;;1.30;1.20;;;19.10;57.00;;;;;;5000730;28;20179;-83
2022/10/15 06:37:44;;;;;;;1.27;1.20;;;19.00;59.60;;;;;;4991318;28;20836;-75
2022/10/15 06:40:11;;;;;;;1.20;1.20;;;19.30;56.40;;;;;;4996599;28;20455;-76
2022/10/15 06:42:37;;;;;;;1.30;1.00;;;19.30;57.20;;;;;;4993146;28;20688;-74
2022/10/15 06:45:03;;;;;;;1.20;1.13;;;18.90;60.80;;;;;;4998032;28;20531;-76
2022/10/15 06:47:29;;;;;;;1.30;1.20;;;19.00;59.30;;;;;;4992638;28;20447;-75
2022/10/15 06:49:54;;;;;;;1.30;1.20;;;19.10;59.90;;;;;;4998464;28;20453;-74
2022/10/15 06:52:20;;;;;;;1.20;1.10;;;19.60;56.90;;;;;;5004624;28;20377;-73
2022/10/15 06:54:46;;;;;;;1.30;1.20;;;19.20;59.70;;;;;;4993011;28;20190;-74
2022/10/15 06:57:11;;;;;;;1.23;1.10;;;19.50;57.40;;;;;;4994956;28;20434;-73
2022/10/15 06:59:37;;;;;;;1.20;1.10;;;19.70;57.00;;;;;;4992192;28;20250;-73
2022/10/15 07:02:03;;;;;;;1.30;1.17;;;20.00;56.70;;;;;;4988780;28;20220;-73
2022/10/15 07:04:28;;;;;;;1.30;1.10;;;20.20;54.30;;;;;;4993806;28;20192;-77
2022/10/15 07:06:54;;;;;;;1.30;1.20;;;20.40;53.30;;;;;;4992375;28;20243;-74
2022/10/15 07:09:20;;;;;;;1.27;1.10;;;19.90;55.80;;;;;;4992335;28;20185;-74
2022/10/15 07:11:45;;;;;;;1.67;1.43;;;19.80;56.90;;;;;;4991866;28;20250;-75
2022/10/15 07:14:11;;;;;;;1.23;1.20;;;20.00;56.40;;;;;;4989993;28;20167;-75
2022/10/15 07:16:38;;;;;;;1.20;1.10;;;19.90;56.50;;;;;;4992281;28;20235;-74
2022/10/15 07:19:04;;;;;;;1.27;1.20;;;19.50;58.60;;;;;;4989898;28;20184;-75
2022/10/15 07:21:30;;;;;;;1.20;1.10;;;19.70;58.10;;;;;;4990574;28;20473;-74
2022/10/15 07:23:55;;;;;;;1.50;1.40;;;19.60;59.50;;;;;;4989560;28;21016;-74
2022/10/15 07:26:21;;;;;;;1.30;1.10;;;19.40;61.30;;;;;;4993557;28;20185;-74
2022/10/15 07:28:46;;;;;;;2.53;1.30;;;19.60;60.60;;;;;;4991988;28;20266;-73
2022/10/15 07:31:13;;;;;;;1.30;1.20;;;19.60;60.70;;;;;;4990891;28;20215;-73
2022/10/15 07:33:40;;;;;;;1.30;1.10;;;19.80;59.50;;;;;;4985900;28;20182;-74
2022/10/15 07:36:08;;;;;;;1.30;1.20;;;19.60;63.00;;;;;;4990317;28;20482;-75
2022/10/15 07:38:35;;;;;;;1.30;1.13;;;20.00;60.30;;;;;;4995408;28;20431;-75
2022/10/15 07:41:02;;;;;;;1.23;1.10;;;19.80;61.00;;;;;;4989122;28;20772;-74
2022/10/15 07:43:28;;;;;;;1.20;1.10;;;20.00;62.00;;;;;;4986357;28;20451;-74
2022/10/15 07:45:54;;;;;;;1.23;1.10;;;20.10;60.00;;;;;;5005645;28;20484;-73
2022/10/15 07:48:19;;;;;;;1.23;1.20;;;20.10;60.90;;;;;;4992714;28;20207;-74
2022/10/15 07:50:45;;;;;;;1.20;1.10;;;20.00;61.40;;;;;;4990035;28;20474;-74
2022/10/15 07:53:11;;;;;;;1.27;1.20;;;20.20;59.80;;;;;;4991539;28;20177;-74
2022/10/15 07:55:37;;;;;;;1.30;1.20;;;20.10;58.20;;;;;;4988814;28;20230;-74
2022/10/15 07:58:04;;;;;;;1.23;1.20;;;20.10;59.30;;;;;;5001258;28;20207;-79
2022/10/15 08:00:31;;;;;;;1.23;1.10;;;20.10;58.00;;;;;;4992205;28;20203;-74
2022/10/15 08:02:57;;;;;;;1.60;1.20;;;19.40;61.00;;;;;;4991731;28;20432;-74
2022/10/15 08:05:22;;;;;;;1.30;1.20;;;19.50;61.00;;;;;;4991572;28;20428;-73
2022/10/15 08:07:48;;;;;;;2.47;1.57;;;19.30;64.40;;;;;;4988380;28;20189;-74
2022/10/15 08:10:14;;;;;;;1.20;1.00;;;19.50;62.10;;;;;;4987971;28;20251;-74
2022/10/15 08:12:40;;;;;;;1.30;1.20;;;19.70;62.10;;;;;;4987981;28;20192;-74
2022/10/15 08:15:06;;;;;;;1.43;1.20;;;19.60;59.20;;;;;;4986834;28;20434;-74
2022/10/15 08:17:31;;;;;;;1.30;1.20;;;19.60;60.00;;;;;;4985377;28;20248;-75
2022/10/15 08:19:57;;;;;;;1.30;1.10;;;19.70;59.50;;;;;;4989721;28;20472;-75
2022/10/15 08:22:23;;;;;;;1.30;1.20;;;20.00;58.30;;;;;;4987949;28;20276;-74
2022/10/15 08:24:48;;;;;;;1.30;1.20;;;20.20;57.30;;;;;;4980910;28;20251;-73
2022/10/15 08:27:14;;;;;;;1.30;1.20;;;20.30;56.50;;;;;;4990087;28;20667;-72
2022/10/15 08:29:39;;;;;;;1.30;1.10;;;20.40;53.50;;;;;;4987970;28;20204;-73
2022/10/15 08:32:05;;;;;;;1.30;1.23;;;19.70;59.90;;;;;;4992714;28;20214;-75
2022/10/15 08:34:31;;;;;;;1.40;1.23;;;19.60;59.40;;;;;;4992025;28;20216;-74
2022/10/15 08:36:56;;;;;;;1.40;1.30;;;20.20;58.50;;;;;;4992965;28;20608;-73
2022/10/15 08:39:22;;;;;;;1.30;1.20;;;20.30;58.20;;;;;;4993103;28;20189;-73
2022/10/15 08:41:57;;;;;;;1.30;1.20;;;20.80;53.30;;;;;;4995019;28;20190;-76
2022/10/15 08:44:28;;;;;;;1.30;1.10;;;21.30;51.50;;;;;;4991410;28;20194;-73
2022/10/15 08:47:21;;;;;;;1.30;1.10;;;21.30;53.40;;;;;;4993450;28;20468;-75
2022/10/15 08:49:55;;;;;;;1.30;1.20;;;21.50;51.90;;;;;;4994289;28;20515;-75
2022/10/15 08:52:24;;;;;;;1.30;1.20;;;21.20;48.60;;;;;;5002364;28;20476;-74
2022/10/15 08:54:51;;;;;;;1.40;1.20;;;20.00;53.20;;;;;;4993447;28;20429;-73
2022/10/15 08:57:48;;;;;;;1.30;1.20;;;20.50;53.30;;;;;;4986302;28;21097;-74
2022/10/15 09:00:21;;;;;;;1.30;1.20;;;20.90;50.20;;;;;;4957777;28;20472;-77
2022/10/15 09:03:10;;;;;;;1.30;1.10;;;20.80;51.80;;;;;;5000569;28;20430;-74
2022/10/15 09:06:05;;;;;;;1.30;1.20;;;21.10;51.10;;;;;;4988695;28;20421;-74
2022/10/15 09:08:39;;;;;;;1.30;1.20;;;21.20;49.00;;;;;;4999023;28;20449;-76
2022/10/15 09:11:43;;;;;;;1.30;1.10;;;21.20;47.90;;;;;;4994546;28;20493;-74
2022/10/15 09:14:14;;;;;;;1.40;1.33;;;20.70;48.60;;;;;;4992853;28;20413;-73
2022/10/15 09:16:42;;;;;;;1.30;1.20;;;20.80;48.80;;;;;;4994884;28;20421;-73
2022/10/15 09:19:16;;;;;;;1.30;1.10;;;20.60;49.30;;;;;;4995452;28;20430;-73
2022/10/15 09:21:42;;;;;;;1.30;1.10;;;20.80;49.70;;;;;;5002078;22;20501;-82
2022/10/15 09:24:11;;;;;;;1.30;1.20;;;20.80;48.00;;;;;;4978707;28;20418;-81
2022/10/15 09:26:48;;;;;;;1.30;1.20;;;21.30;44.50;;;;;;4980632;28;20989;-81
2022/10/15 09:29:27;;;;;;;1.23;1.10;;;21.00;47.30;;;;;;4981215;28;20476;-81
2022/10/15 09:32:30;;;;;;;1.30;1.20;;;21.40;45.80;;;;;;4980419;28;20933;-81
2022/10/15 09:35:24;;;;;;;1.33;1.23;;;21.00;45.90;;;;;;4974542;28;20452;-82
2022/10/15 09:38:13;;;;;;;1.30;1.30;;;20.60;48.60;;;;;;4977605;28;20426;-81
2022/10/15 09:41:05;;;;;;;1.30;1.20;;;21.10;45.70;;;;;;4975031;28;21013;-82
2022/10/15 09:43:35;;;;;;;1.30;1.20;;;20.80;46.50;;;;;;4974734;28;20426;-82
2022/10/15 09:46:02;;;;;;;1.30;1.20;;;20.80;45.90;;;;;;4976631;28;20426;-82
2022/10/15 09:48:31;;;;;;;1.27;1.20;;;20.90;45.90;;;;;;4974928;28;20432;-82
2022/10/15 09:51:11;;;;;;;1.30;1.17;;;20.80;45.90;;;;;;4978146;28;20481;-82
2022/10/15 09:54:08;;;;;;;1.30;1.30;;;21.10;45.20;;;;;;4986923;28;20528;-82
2022/10/15 09:56:51;;;;;;;1.30;1.20;;;21.20;42.80;;;;;;4956974;28;21014;-82
2022/10/15 09:59:18;;;;;;;1.40;1.20;;;20.80;48.00;;;;;;4976390;28;20523;-83
2022/10/15 10:02:17;;;;;;;1.40;1.20;;;20.70;44.00;;;;;;4978864;28;20461;-83
2022/10/15 10:04:43;;;;;;;1.40;1.30;;;21.00;43.90;;;;;;4974970;28;20922;-82
2022/10/15 10:07:26;;;;;;;1.30;1.20;;;20.80;42.60;;;;;;4974131;28;20450;-83
2022/10/15 10:09:59;;;;;;;1.30;1.13;;;20.70;44.20;;;;;;4975078;28;20436;-82
2022/10/15 10:12:32;;;;;;;1.30;1.20;;;21.10;44.90;;;;;;4975109;28;20498;-83
2022/10/15 10:15:02;;;;;;;1.43;1.30;;;20.80;43.10;;;;;;4973442;28;20462;-83
2022/10/15 10:17:28;;;;;;;1.30;1.20;;;21.00;42.60;;;;;;4989352;28;20426;-83
2022/10/15 10:20:24;;;;;;;1.30;1.10;;;21.20;42.80;;;;;;4987593;28;20420;-82
2022/10/15 10:22:53;;;;;;;1.30;1.10;;;20.80;43.40;;;;;;4954931;28;20801;-83
2022/10/15 10:25:25;;;;;;;1.60;1.30;;;21.00;42.60;;;;;;4955786;28;20474;-82
2022/10/15 10:27:56;;;;;;;1.30;1.23;;;20.80;43.10;;;;;;4971690;28;21260;-82
2022/10/15 10:30:22;;;;;;;1.30;1.10;;;20.40;44.00;;;;;;4974051;28;20436;-83
2022/10/15 10:32:54;;;;;;;1.30;1.30;;;20.70;44.60;;;;;;4965969;28;20447;-83
2022/10/15 10:35:22;;;;;;;1.30;1.20;;;21.50;41.60;;;;;;4973598;28;20451;-83
2022/10/15 10:37:49;;;;;;;1.30;1.30;;;22.00;40.00;;;;;;4973848;28;20441;-83
2022/10/15 10:40:26;;;;;;;1.30;1.20;;;22.00;39.70;;;;;;4974186;28;20893;-83
2022/10/15 10:43:16;;;;;;;1.20;1.17;;;22.00;39.00;;;;;;4974381;28;20418;-83
2022/10/15 10:46:13;;;;;;;1.50;1.27;;;21.80;39.70;;;;;;4973670;28;20971;-83
2022/10/15 10:48:51;;;;;;;1.30;1.20;;;21.00;40.90;;;;;;4967822;28;20419;-83
2022/10/15 10:51:25;;;;;;;1.30;1.20;;;20.70;42.30;;;;;;4975519;28;21015;-83
2022/10/15 10:53:59;;;;;;;1.30;1.30;;;21.00;42.20;;;;;;4973687;28;20588;-83
2022/10/15 10:56:38;;;;;;;1.73;1.20;;;21.30;42.20;;;;;;4972866;28;20464;-82
2022/10/15 10:59:18;;;;;;;1.30;1.30;;;22.20;40.10;;;;;;4973660;28;20871;-83
2022/10/15 11:01:44;;;;;;;1.30;1.30;;;21.50;37.90;;;;;;4975443;28;20461;-82
2022/10/15 11:04:24;;;;;;;1.30;1.20;;;21.80;39.20;;;;;;4972626;28;21358;-81
2022/10/15 11:07:08;;;;;;;1.30;1.17;;;21.90;39.00;;;;;;4969690;28;20941;-80
2022/10/15 11:10:07;;;;;;;1.63;1.50;;;20.80;42.40;;;;;;4976072;28;20409;-81
2022/10/15 11:12:42;;;;;;;1.30;1.30;;;21.20;42.80;;;;;;4969378;28;20545;-82
2022/10/15 11:15:40;;;;;;;1.30;1.20;;;21.30;40.80;;;;;;4974019;28;20463;-82
2022/10/15 11:18:36;;;;;;;1.30;1.23;;;21.10;41.70;;;;;;4976107;28;20430;-82
2022/10/15 11:21:22;;;;;;;1.33;1.23;;;21.30;42.00;;;;;;4974815;28;20499;-82
2022/10/15 11:24:00;;;;;;;1.30;1.30;;;20.80;42.40;;;;;;4974183;28;20524;-82
2022/10/15 11:26:53;;;;;;;1.30;1.20;;;20.90;41.20;;;;;;4975153;28;20420;-83
2022/10/15 11:29:31;;;;;;;1.40;1.33;;;20.60;43.40;;;;;;4979128;28;20493;-79
2022/10/15 11:32:03;;;;;;;1.30;1.17;;;21.00;41.70;;;;;;4972092;28;20975;-82
2022/10/15 11:34:44;;;;;;;1.40;1.20;;;20.90;42.50;;;;;;4968658;28;21939;-82
2022/10/15 11:37:19;;;;;;;1.30;1.20;;;21.20;41.10;;;;;;4974998;28;20992;-81
2022/10/15 11:39:50;;;;;;;1.27;1.20;;;21.40;41.30;;;;;;4978025;28;20420;-81
2022/10/15 11:42:36;;;;;;;2.00;1.43;;;22.10;39.40;;;;;;4975994;28;20462;-81
2022/10/15 11:45:14;;;;;;;1.30;1.20;;;22.30;38.30;;;;;;4974004;28;20518;-81
2022/10/15 11:47:58;;;;;;;1.30;1.20;;;22.10;37.90;;;;;;4972078;28;20448;-81
2022/10/15 11:50:41;;;;;;;1.50;1.30;;;21.90;37.80;;;;;;4974833;28;20446;-82
2022/10/15 11:53:26;;;;;;;1.30;1.20;;;21.00;40.60;;;;;;4974064;28;20525;-81
2022/10/15 11:56:02;;;;;;;1.30;1.20;;;21.60;40.10;;;;;;4973363;28;20445;-82
2022/10/15 11:58:36;;;;;;;1.30;1.20;;;22.20;38.30;;;;;;4972243;28;20431;-81
2022/10/15 12:01:16;;;;;;;1.30;1.30;;;21.50;38.20;;;;;;4975883;28;20457;-81
2022/10/15 12:04:08;;;;;;;1.30;1.17;;;20.80;39.90;;;;;;4972466;28;20458;-81
2022/10/15 12:06:39;;;;;;;1.53;1.27;;;21.30;39.30;;;;;;4971239;28;20540;-84
2022/10/15 12:09:06;;;;;;;1.30;1.30;;;21.90;38.50;;;;;;4972184;28;20519;-80
2022/10/15 12:11:59;;;;;;;1.90;1.40;;;21.90;37.60;;;;;;4975396;28;20837;-79
2022/10/15 12:14:45;;;;;;;1.50;1.20;;;22.30;37.50;;;;;;4973654;28;20451;-79
2022/10/15 12:17:22;;;;;;;1.30;1.27;;;22.90;36.70;;;;;;4972433;28;20429;-79
2022/10/15 12:19:59;;;;;;;1.30;1.20;;;22.80;36.30;;;;;;4972309;28;21014;-79
2022/10/15 12:22:38;;;;;;;1.30;1.23;;;22.80;35.60;;;;;;4972880;28;20544;-79
2022/10/15 12:25:05;;;;;;;1.30;1.10;;;22.30;37.00;;;;;;4975078;28;20439;-78
2022/10/15 12:27:36;;;;;;;1.40;1.23;;;21.80;36.80;;;;;;4975031;28;20431;-76
2022/10/15 12:30:01;;;;;;;1.30;1.13;;;22.00;36.60;;;;;;4976343;28;20454;-78
2022/10/15 12:32:30;;;;;;;1.40;1.20;;;22.50;36.30;;;;;;4975835;28;20482;-78
2022/10/15 12:34:56;;;;;;;1.30;1.30;;;22.50;36.10;;;;;;4976298;28;20177;-78
2022/10/15 12:37:25;;;;;;;1.30;1.30;;;22.80;36.20;;;;;;4973185;28;20513;-78
2022/10/15 12:39:59;;;;;;;1.30;1.20;;;22.80;35.90;;;;;;4969462;28;20526;-78
2022/10/15 12:42:32;;;;;;;1.30;1.10;;;23.10;35.30;;;;;;4974167;28;20461;-78
2022/10/15 12:45:01;;;;;;;1.30;1.30;;;22.90;34.70;;;;;;4969168;28;20813;-78
2022/10/15 12:47:53;;;;;;;1.30;1.30;;;22.80;35.30;;;;;;4972736;28;20541;-80
2022/10/15 12:50:21;;;;;;;1.30;1.20;;;23.30;35.80;;;;;;4973074;28;20443;-81
2022/10/15 12:52:51;;;;;;;3.20;1.63;;;23.70;35.20;;;;;;4974749;28;20465;-81
2022/10/15 12:55:24;;;;;;;2.07;1.40;;;23.90;33.70;;;;;;4977111;28;20471;-81
2022/10/15 12:57:54;;;;;;;1.30;1.20;;;23.80;33.60;;;;;;4973854;28;20441;-81
2022/10/15 13:00:36;;;;;;;1.30;1.20;;;23.70;33.30;;;;;;4975222;28;20987;-81
2022/10/15 13:03:23;;;;;;;1.40;1.40;;;23.20;35.20;;;;;;4974068;28;20428;-81
2022/10/15 13:05:49;;;;;;;1.30;1.20;;;22.30;36.10;;;;;;4978192;28;20438;-81
2022/10/15 13:08:24;;;;;;;1.30;1.10;;;22.50;36.20;;;;;;4977505;28;20437;-82
2022/10/15 13:10:54;;;;;;;1.30;1.30;;;22.60;36.30;;;;;;4978308;28;20485;-81